Time;durP1;ratioP1;P1;durP2;ratioP2;P2;SDS_P1;SDS_P2;PMS_P1;PMS_P2;Temp;Humidity;BMP_temperature;BMP_pressure;BME280_temperature;BME280_humidity;BME280_pressure;Samples;Min_cycle;Max_cycle;Signal;HPM_P1;HPM_P2
2023/11/03 00:03:36;;;;;;;;;;;;;;;20.80;43.28;93028.03;10482651;28;2024;-57
2023/11/03 00:08:37;;;;;;;;;;;;;;;20.76;43.31;93008.75;10459498;28;2081;-57
2023/11/03 00:13:37;;;;;;;;;;;;;;;20.74;43.76;92924.09;10478809;28;2291;-58
2023/11/03 00:18:38;;;;;;;;;;;;;;;20.72;43.55;92961.28;10478786;28;2521;-57
2023/11/03 00:23:38;;;;;;;;;;;;;;;20.70;43.32;92944.31;10486961;28;1939;-57
2023/11/03 00:28:39;;;;;;;;;;;;;;;20.66;43.26;92938.97;10489128;28;1966;-58
2023/11/03 00:33:39;;;;;;;;;;;;;;;20.65;43.52;92991.97;10477170;28;1987;-56
2023/11/03 00:38:43;;;;;;;;;;;;;;;20.61;43.51;93002.38;10467112;28;1975;-58
2023/11/03 00:43:44;;;;;;;;;;;;;;;20.59;43.63;92961.72;10482398;28;2042;-58
2023/11/03 00:48:44;;;;;;;;;;;;;;;20.58;43.16;92918.84;10460487;28;1950;-57
2023/11/03 00:53:45;;;;;;;;;;;;;;;20.56;43.60;92963.16;10476674;28;5074;-55
2023/11/03 00:58:45;;;;;;;;;;;;;;;20.52;43.43;93004.44;10481804;28;1967;-57
2023/11/03 01:03:46;;;;;;;;;;;;;;;20.51;43.18;93010.78;10484105;28;2597;-57
2023/11/03 01:08:46;;;;;;;;;;;;;;;20.48;43.29;92998.31;10485541;28;2072;-55
2023/11/03 01:13:47;;;;;;;;;;;;;;;20.48;43.28;93008.84;10464465;28;2108;-57
2023/11/03 01:18:47;;;;;;;;;;;;;;;20.46;43.39;92999.75;10476931;28;2095;-57
2023/11/03 01:23:47;;;;;;;;;;;;;;;20.43;43.13;93024.09;10470610;28;2009;-56
2023/11/03 01:28:48;;;;;;;;;;;;;;;20.41;43.35;93005.25;10459068;28;2105;-58
2023/11/03 01:33:49;;;;;;;;;;;;;;;20.39;43.42;93016.13;10471290;28;2148;-55
2023/11/03 01:38:49;;;;;;;;;;;;;;;20.37;43.33;92949.91;10485371;28;2009;-58
2023/11/03 01:44:09;;;;;;;;;;;;;;;20.36;43.19;92919.44;10482277;28;2073;-55
2023/11/03 01:49:09;;;;;;;;;;;;;;;20.35;43.14;92919.78;10479637;28;1998;-57
2023/11/03 01:54:10;;;;;;;;;;;;;;;20.32;43.18;92913.31;10468081;28;1982;-57
2023/11/03 01:59:10;;;;;;;;;;;;;;;20.31;43.26;92950.50;10478281;28;2008;-57
2023/11/03 02:04:10;;;;;;;;;;;;;;;20.28;43.36;92944.03;10476805;28;1923;-56
2023/11/03 02:09:11;;;;;;;;;;;;;;;20.26;43.33;92954.13;10482786;28;2017;-57
2023/11/03 02:14:11;;;;;;;;;;;;;;;20.24;43.06;92961.59;10454181;28;2024;-56
2023/11/03 02:19:11;;;;;;;;;;;;;;;20.22;43.24;92956.69;10479771;28;1998;-57
2023/11/03 02:24:12;;;;;;;;;;;;;;;20.22;42.83;92943.53;10480663;28;2124;-56
2023/11/03 02:29:12;;;;;;;;;;;;;;;20.19;43.31;92943.41;10472182;28;2027;-57
2023/11/03 02:34:12;;;;;;;;;;;;;;;20.18;43.08;92934.75;10485139;28;2697;-55
2023/11/03 02:39:12;;;;;;;;;;;;;;;20.16;43.06;92928.31;10467250;28;2180;-57
2023/11/03 02:44:13;;;;;;;;;;;;;;;20.15;42.95;92905.75;10471171;28;1947;-57
2023/11/03 02:49:13;;;;;;;;;;;;;;;20.14;43.04;92901.59;10463448;28;2176;-56
2023/11/03 02:54:14;;;;;;;;;;;;;;;20.12;43.08;92888.78;10479305;28;2085;-56
2023/11/03 02:59:14;;;;;;;;;;;;;;;20.11;42.86;92886.50;10465883;28;2069;-56
2023/11/03 03:04:14;;;;;;;;;;;;;;;20.09;42.85;92891.31;10476980;28;1887;-57
2023/11/03 03:09:18;;;;;;;;;;;;;;;20.08;43.15;92906.34;10471373;28;2121;-57
2023/11/03 03:14:18;;;;;;;;;;;;;;;20.06;42.80;92902.50;10440643;28;1949;-57
2023/11/03 03:19:18;;;;;;;;;;;;;;;20.05;42.79;92907.00;10480714;28;2058;-57
2023/11/03 03:24:19;;;;;;;;;;;;;;;20.02;42.99;92888.50;10479214;28;2093;-57
2023/11/03 03:29:19;;;;;;;;;;;;;;;20.02;43.01;92876.13;10478563;28;1947;-57
2023/11/03 03:34:19;;;;;;;;;;;;;;;20.01;42.68;92879.84;10475370;28;2286;-57
2023/11/03 03:39:20;;;;;;;;;;;;;;;20.00;42.58;92878.34;10461139;28;1970;-56
2023/11/03 03:44:20;;;;;;;;;;;;;;;19.98;42.88;92874.50;10480100;28;2065;-56
2023/11/03 03:49:20;;;;;;;;;;;;;;;19.97;42.89;92889.53;10470623;28;2058;-56
2023/11/03 03:54:20;;;;;;;;;;;;;;;19.95;42.94;92881.19;10475811;28;5307;-55
2023/11/03 03:59:21;;;;;;;;;;;;;;;19.94;42.84;92898.09;10472000;28;1991;-57
2023/11/03 04:04:21;;;;;;;;;;;;;;;19.93;42.82;92903.66;10477410;28;1995;-57
2023/11/03 04:09:21;;;;;;;;;;;;;;;19.91;42.75;92882.97;10477718;28;1902;-56
2023/11/03 04:14:23;;;;;;;;;;;;;;;19.90;43.13;92891.22;10477447;28;1982;-56
2023/11/03 04:19:23;;;;;;;;;;;;;;;19.88;43.33;92891.56;10482095;28;1914;-57
2023/11/03 04:24:24;;;;;;;;;;;;;;;19.88;42.60;92885.53;10478348;28;2039;-57
2023/11/03 04:29:24;;;;;;;;;;;;;;;19.87;42.64;92886.63;10484475;28;2342;-55
2023/11/03 04:34:24;;;;;;;;;;;;;;;19.86;42.59;92875.34;10483337;28;2322;-56
2023/11/03 04:39:27;;;;;;;;;;;;;;;19.84;42.82;92876.78;10484439;28;2096;-57
2023/11/03 04:44:27;;;;;;;;;;;;;;;19.84;43.14;92879.41;10482137;28;1984;-57
2023/11/03 04:49:30;;;;;;;;;;;;;;;19.82;42.91;92857.97;10483722;28;1973;-57
2023/11/03 04:54:30;;;;;;;;;;;;;;;19.81;43.12;92849.31;10474966;28;5301;-57
2023/11/03 04:59:30;;;;;;;;;;;;;;;19.80;43.07;92873.31;10485280;28;2041;-57
2023/11/03 05:04:31;;;;;;;;;;;;;;;19.78;42.71;92891.28;10487202;28;1934;-56
2023/11/03 05:09:31;;;;;;;;;;;;;;;19.77;43.25;92893.13;10490074;28;1934;-57
2023/11/03 05:14:32;;;;;;;;;;;;;;;19.81;44.14;92907.13;10485263;28;2049;-57
2023/11/03 05:19:35;;;;;;;;;;;;;;;19.83;43.00;92910.19;10482037;28;2057;-56
2023/11/03 05:24:35;;;;;;;;;;;;;;;19.87;42.90;92905.78;10460405;28;2885;-57
2023/11/03 05:29:36;;;;;;;;;;;;;;;19.89;42.98;92903.59;10463239;28;2221;-57
2023/11/03 05:34:36;;;;;;;;;;;;;;;19.94;43.23;92907.84;10472570;28;2073;-56
2023/11/03 05:39:37;;;;;;;;;;;;;;;19.98;43.46;92892.91;10485961;28;1984;-57
2023/11/03 05:44:37;;;;;;;;;;;;;;;20.06;43.52;92894.63;10481703;28;2185;-57
2023/11/03 05:49:37;;;;;;;;;;;;;;;20.09;43.22;92901.84;10481478;28;1917;-55
2023/11/03 05:54:37;;;;;;;;;;;;;;;20.17;43.17;92914.06;10469003;28;5338;-56
2023/11/03 05:59:38;;;;;;;;;;;;;;;20.27;43.14;92913.59;10479706;28;1975;-58
2023/11/03 06:04:39;;;;;;;;;;;;;;;20.33;43.19;92911.47;10484421;28;1874;-57
2023/11/03 06:09:39;;;;;;;;;;;;;;;20.41;42.58;92918.41;10481304;28;1956;-57
2023/11/03 06:14:40;;;;;;;;;;;;;;;20.42;42.75;92918.09;10466059;28;1956;-58
2023/11/03 06:19:40;;;;;;;;;;;;;;;20.46;42.44;92916.31;10492160;28;2343;-56
2023/11/03 06:24:40;;;;;;;;;;;;;;;20.50;42.57;92922.44;10482117;28;1875;-57
2023/11/03 06:29:40;;;;;;;;;;;;;;;20.54;42.59;92946.19;10469814;28;1910;-57
2023/11/03 06:34:41;;;;;;;;;;;;;;;20.55;42.36;92961.63;10477534;28;2276;-56
2023/11/03 06:39:41;;;;;;;;;;;;;;;20.62;42.42;92964.44;10459549;28;2050;-55
2023/11/03 06:44:41;;;;;;;;;;;;;;;20.63;42.21;92960.69;10478589;28;1997;-54
2023/11/03 06:49:44;;;;;;;;;;;;;;;20.60;42.43;92958.75;10479281;28;1929;-55
2023/11/03 06:54:44;;;;;;;;;;;;;;;20.64;42.01;92978.03;10478490;28;5104;-56
2023/11/03 06:59:44;;;;;;;;;;;;;;;20.66;42.18;92988.97;10467581;28;2029;-53
2023/11/03 07:04:45;;;;;;;;;;;;;;;20.66;42.57;92988.22;10471596;28;1895;-56
2023/11/03 07:09:46;;;;;;;;;;;;;;;20.69;43.08;92969.84;10460430;28;2228;-53
2023/11/03 07:14:46;;;;;;;;;;;;;;;20.71;43.30;92972.91;10459480;28;1843;-54
2023/11/03 07:19:47;;;;;;;;;;;;;;;20.73;43.36;92968.06;10456532;28;1928;-56
2023/11/03 07:24:47;;;;;;;;;;;;;;;20.74;43.22;92966.97;10469955;28;2092;-56
2023/11/03 07:29:48;;;;;;;;;;;;;;;20.81;43.26;92975.03;10465848;28;2522;-57
2023/11/03 07:34:49;;;;;;;;;;;;;;;20.82;43.54;92970.53;10476054;28;1960;-57
2023/11/03 07:39:50;;;;;;;;;;;;;;;20.85;43.36;92975.91;10459613;28;2129;-53
2023/11/03 07:44:50;;;;;;;;;;;;;;;20.87;43.16;92978.97;10469450;28;1954;-54
2023/11/03 07:49:50;;;;;;;;;;;;;;;20.89;43.37;92992.53;10472852;28;2156;-54
2023/11/03 07:54:51;;;;;;;;;;;;;;;20.96;42.87;93007.72;10457850;28;5106;-56
2023/11/03 07:59:55;;;;;;;;;;;;;;;20.92;43.13;93012.91;10480271;28;1982;-55
2023/11/03 08:04:56;;;;;;;;;;;;;;;20.92;43.16;93012.91;10484413;28;1894;-55
2023/11/03 08:09:56;;;;;;;;;;;;;;;20.94;43.17;93031.78;10477570;28;1945;-55
2023/11/03 08:14:56;;;;;;;;;;;;;;;20.90;43.19;93030.94;10480718;28;2006;-54
2023/11/03 08:19:56;;;;;;;;;;;;;;;20.90;42.98;93046.72;10478879;28;2041;-57
2023/11/03 08:24:57;;;;;;;;;;;;;;;20.90;43.18;93049.34;10475442;28;2182;-54
2023/11/03 08:29:57;;;;;;;;;;;;;;;20.89;43.40;93055.75;10492828;28;2728;-55
2023/11/03 08:34:57;;;;;;;;;;;;;;;20.87;43.23;93055.31;10477177;28;2212;-53
2023/11/03 08:39:59;;;;;;;;;;;;;;;20.86;43.17;93060.91;10483235;28;2288;-53
2023/11/03 08:45:00;;;;;;;;;;;;;;;20.83;43.23;93067.63;10477484;28;2033;-55
2023/11/03 08:50:02;;;;;;;;;;;;;;;20.81;43.44;93075.06;10477483;28;2261;-55
2023/11/03 08:55:06;;;;;;;;;;;;;;;20.79;43.12;93069.38;10485253;28;5118;-55
2023/11/03 09:00:11;;;;;;;;;;;;;;;20.79;43.09;93072.00;10479008;28;2033;-55
2023/11/03 09:05:12;;;;;;;;;;;;;;;20.74;43.33;93069.66;10480286;28;2014;-55
2023/11/03 09:10:12;;;;;;;;;;;;;;;20.73;43.14;93077.88;10481650;28;2020;-55
2023/11/03 09:15:12;;;;;;;;;;;;;;;20.69;43.17;93077.78;10479034;28;1952;-56
2023/11/03 09:20:17;;;;;;;;;;;;;;;20.67;42.98;93084.50;10477283;28;2057;-51
2023/11/03 09:25:18;;;;;;;;;;;;;;;20.63;42.82;93092.28;10472351;28;2355;-56
2023/11/03 09:30:18;;;;;;;;;;;;;;;20.61;42.56;93091.13;10478070;28;2038;-55
2023/11/03 09:35:18;;;;;;;;;;;;;;;20.58;42.59;93089.91;10476693;28;1969;-57
2023/11/03 09:40:20;;;;;;;;;;;;;;;20.57;42.54;93100.75;10487151;28;2041;-53
2023/11/03 09:45:23;;;;;;;;;;;;;;;20.54;42.49;93102.22;10453636;28;2009;-56
2023/11/03 09:50:24;;;;;;;;;;;;;;;20.51;42.90;93108.13;10490681;28;2053;-55
2023/11/03 09:55:24;;;;;;;;;;;;;;;20.49;42.93;93107.72;10472335;28;2041;-55
2023/11/03 10:00:24;;;;;;;;;;;;;;;20.48;42.98;93106.19;10479291;28;1960;-56
2023/11/03 10:05:29;;;;;;;;;;;;;;;20.46;42.96;93100.50;10436200;28;1940;-55
2023/11/03 10:10:30;;;;;;;;;;;;;;;20.46;42.94;93097.09;10472158;28;2010;-56
2023/11/03 10:15:30;;;;;;;;;;;;;;;20.43;42.92;93095.91;10477462;28;1923;-55
2023/11/03 10:20:30;;;;;;;;;;;;;;;20.43;42.45;93084.59;10465456;28;2495;-55
2023/11/03 10:25:31;;;;;;;;;;;;;;;20.41;42.67;93081.53;10466143;28;2281;-57
2023/11/03 10:30:32;;;;;;;;;;;;;;;20.39;42.75;93087.16;10472338;28;1910;-55
2023/11/03 10:35:32;;;;;;;;;;;;;;;20.38;42.83;93082.97;10455358;28;1990;-52
2023/11/03 10:40:32;;;;;;;;;;;;;;;20.37;42.41;93096.47;10467489;28;2228;-56
2023/11/03 10:45:33;;;;;;;;;;;;;;;20.33;42.66;93091.13;10469943;28;1882;-54
2023/11/03 10:50:37;;;;;;;;;;;;;;;20.31;42.47;93085.44;10459584;28;2078;-55
2023/11/03 10:55:38;;;;;;;;;;;;;;;20.32;42.56;93088.84;10472864;28;1980;-57
2023/11/03 11:00:42;;;;;;;;;;;;;;;20.33;42.77;93091.13;10463080;28;2394;-55
2023/11/03 11:06:03;;;;;;;;;;;;;;;20.34;42.56;93084.75;10478711;28;2076;-55
2023/11/03 11:11:03;;;;;;;;;;;;;;;20.38;42.61;93090.88;10479015;28;1894;-56
2023/11/03 11:16:04;;;;;;;;;;;;;;;20.40;42.55;93080.03;10475896;28;2385;-55
2023/11/03 11:21:08;;;;;;;;;;;;;;;20.43;42.14;93095.91;10479000;28;2108;-54
2023/11/03 11:26:16;;;;;;;;;;;;;;;20.48;42.68;93095.66;10448196;28;1922;-55
2023/11/03 11:31:23;;;;;;;;;;;;;;;20.52;42.59;93109.69;10456717;28;2042;-55
2023/11/03 11:36:23;;;;;;;;;;;;;;;20.58;42.42;93107.56;10488619;28;2111;-59
2023/11/03 11:41:27;;;;;;;;;;;;;;;20.62;42.71;93114.47;10484085;28;2584;-59
2023/11/03 11:46:27;;;;;;;;;;;;;;;20.70;42.31;93120.66;10461179;28;1887;-59
2023/11/03 11:51:27;;;;;;;;;;;;;;;20.85;42.32;93120.72;10483126;28;2045;-59
2023/11/03 11:56:28;;;;;;;;;;;;;;;21.04;42.16;93125.34;10481844;28;5470;-57
2023/11/03 12:01:28;;;;;;;;;;;;;;;21.17;41.51;93128.66;10481858;28;1973;-56
2023/11/03 12:06:29;;;;;;;;;;;;;;;21.29;41.23;93126.69;10475341;28;2001;-57
2023/11/03 12:11:29;;;;;;;;;;;;;;;21.40;41.29;93129.59;10474579;28;2278;-56
2023/11/03 12:16:30;;;;;;;;;;;;;;;21.37;41.29;93123.13;10482508;28;2052;-57
2023/11/03 12:21:30;;;;;;;;;;;;;;;21.36;40.89;93131.38;10465494;28;2217;-56
2023/11/03 12:26:30;;;;;;;;;;;;;;;21.37;41.29;93140.84;10479171;28;2277;-58
2023/11/03 12:31:33;;;;;;;;;;;;;;;21.36;41.23;93129.53;10480895;28;1983;-58
2023/11/03 12:36:33;;;;;;;;;;;;;;;21.38;41.44;93129.16;10481644;28;2041;-56
2023/11/03 12:41:34;;;;;;;;;;;;;;;21.39;41.07;93138.63;10476315;28;1996;-57
2023/11/03 12:46:44;;;;;;;;;;;;;;;21.39;40.95;93136.72;10477792;28;2057;-58
2023/11/03 12:51:44;;;;;;;;;;;;;;;21.41;41.32;93147.69;10480654;28;5109;-59
2023/11/03 12:56:45;;;;;;;;;;;;;;;21.37;41.09;93160.03;10480555;28;1982;-56
2023/11/03 13:01:45;;;;;;;;;;;;;;;21.36;41.32;93155.09;10473603;28;2106;-57
2023/11/03 13:06:47;;;;;;;;;;;;;;;21.35;40.96;93151.69;10478404;28;1859;-58
2023/11/03 13:11:47;;;;;;;;;;;;;;;21.32;41.00;93148.97;10480814;28;1963;-57
2023/11/03 13:16:47;;;;;;;;;;;;;;;21.29;40.96;93144.41;10470535;28;2103;-58
2023/11/03 13:21:48;;;;;;;;;;;;;;;21.27;40.92;93143.97;10465356;28;1914;-58
2023/11/03 13:26:48;;;;;;;;;;;;;;;21.24;41.27;93144.66;10473622;28;1940;-59
2023/11/03 13:31:48;;;;;;;;;;;;;;;21.23;41.23;93158.91;10478951;28;2268;-58
2023/11/03 13:36:48;;;;;;;;;;;;;;;21.19;41.36;93144.88;10480309;28;2136;-58
2023/11/03 13:41:49;;;;;;;;;;;;;;;21.20;41.29;93152.47;10498102;28;2086;-58
2023/11/03 13:46:50;;;;;;;;;;;;;;;21.22;41.03;93160.03;10475928;28;2132;-57
2023/11/03 13:51:51;;;;;;;;;;;;;;;21.19;41.22;93173.84;10478260;28;5160;-58
2023/11/03 13:56:51;;;;;;;;;;;;;;;21.19;41.18;93189.66;10479608;28;1982;-59
2023/11/03 14:01:52;;;;;;;;;;;;;;;21.18;40.99;93177.63;10477406;28;1977;-56
2023/11/03 14:06:53;;;;;;;;;;;;;;;21.20;41.04;93199.13;10479716;28;2065;-57
2023/11/03 14:11:53;;;;;;;;;;;;;;;21.22;40.87;93205.59;10481121;28;1874;-58
2023/11/03 14:16:53;;;;;;;;;;;;;;;21.14;41.73;93209.16;10470572;28;2058;-58
2023/11/03 14:21:54;;;;;;;;;;;;;;;21.17;41.51;93202.41;10476466;28;2086;-58
2023/11/03 14:26:55;;;;;;;;;;;;;;;21.16;41.59;93221.97;10475269;28;2428;-58
2023/11/03 14:31:55;;;;;;;;;;;;;;;21.17;41.33;93218.22;10467570;28;1931;-57
2023/11/03 14:36:55;;;;;;;;;;;;;;;21.13;41.39;93210.22;10474637;28;2004;-56
2023/11/03 14:41:56;;;;;;;;;;;;;;;21.16;41.42;93224.59;10480309;28;2081;-58
2023/11/03 14:46:57;;;;;;;;;;;;;;;21.17;41.00;93234.03;10474434;28;2098;-58
2023/11/03 14:51:58;;;;;;;;;;;;;;;21.10;41.44;93237.25;10476452;28;5188;-57
2023/11/03 14:56:58;;;;;;;;;;;;;;;21.08;41.35;93243.97;10482773;28;1933;-56
2023/11/03 15:01:58;;;;;;;;;;;;;;;21.09;41.35;93259.41;10472724;28;2069;-55
2023/11/03 15:06:59;;;;;;;;;;;;;;;21.04;41.22;93267.59;10493936;28;1976;-57
2023/11/03 15:11:59;;;;;;;;;;;;;;;21.03;41.24;93264.16;10477258;28;1999;-56
2023/11/03 15:16:59;;;;;;;;;;;;;;;21.01;41.62;93261.06;10479022;28;1920;-56
2023/11/03 15:22:01;;;;;;;;;;;;;;;21.02;41.16;93261.84;10473709;28;2315;-57
2023/11/03 15:27:02;;;;;;;;;;;;;;;21.00;41.03;93266.66;10477478;28;2057;-57
2023/11/03 15:32:03;;;;;;;;;;;;;;;20.98;41.30;93272.28;10464815;28;1955;-61
2023/11/03 15:37:03;;;;;;;;;;;;;;;21.00;41.50;93275.34;10478370;28;2410;-55
2023/11/03 15:42:06;;;;;;;;;;;;;;;20.97;41.69;93286.56;10471750;28;2025;-56
2023/11/03 15:47:07;;;;;;;;;;;;;;;20.99;41.34;93297.53;10490516;28;2056;-55
2023/11/03 15:52:07;;;;;;;;;;;;;;;20.98;41.24;93305.72;10487877;28;5598;-56
2023/11/03 15:57:09;;;;;;;;;;;;;;;20.97;41.47;93310.25;10482488;28;2109;-57
2023/11/03 16:02:10;;;;;;;;;;;;;;;20.98;41.40;93319.69;10483479;28;2176;-56
2023/11/03 16:07:10;;;;;;;;;;;;;;;20.95;41.75;93314.31;10457028;28;2136;-56
2023/11/03 16:12:11;;;;;;;;;;;;;;;20.96;41.39;93329.78;10468130;28;2105;-55
2023/11/03 16:17:12;;;;;;;;;;;;;;;20.97;41.81;93333.19;10463877;28;1954;-56
2023/11/03 16:22:12;;;;;;;;;;;;;;;20.95;41.53;93341.44;10486982;28;2097;-57
2023/11/03 16:27:13;;;;;;;;;;;;;;;20.96;41.63;93356.13;10483244;28;2064;-55
2023/11/03 16:32:14;;;;;;;;;;;;;;;20.97;41.89;93354.25;10482212;28;2855;-55
2023/11/03 16:37:14;;;;;;;;;;;;;;;21.00;41.75;93358.84;10477143;28;1796;-57
2023/11/03 16:42:15;;;;;;;;;;;;;;;21.01;41.62;93374.34;10480730;28;1910;-55
2023/11/03 16:47:17;;;;;;;;;;;;;;;21.06;41.86;93376.75;10479162;28;1874;-54
2023/11/03 16:52:17;;;;;;;;;;;;;;;21.17;41.70;93382.31;10482261;28;5149;-58
2023/11/03 16:57:17;;;;;;;;;;;;;;;21.33;41.91;93390.31;10479539;28;2097;-58
2023/11/03 17:02:18;;;;;;;;;;;;;;;21.39;41.73;93395.00;10453403;28;1910;-58
2023/11/03 17:07:18;;;;;;;;;;;;;;;21.50;41.68;93396.06;10455229;28;2036;-58
2023/11/03 17:12:19;;;;;;;;;;;;;;;21.57;41.71;93400.75;10475639;28;1615;-57
2023/11/03 17:17:20;;;;;;;;;;;;;;;21.61;41.74;93406.91;10474896;28;1784;-59
2023/11/03 17:22:23;;;;;;;;;;;;;;;21.65;41.15;93407.75;10482058;28;1906;-59
2023/11/03 17:27:24;;;;;;;;;;;;;;;21.66;41.60;93417.19;10479435;28;2287;-59
2023/11/03 17:32:24;;;;;;;;;;;;;;;21.70;41.39;93426.00;10467048;28;1839;-58
2023/11/03 17:37:25;;;;;;;;;;;;;;;21.70;41.18;93437.28;10484948;28;1906;-59
2023/11/03 17:42:25;;;;;;;;;;;;;;;21.61;42.02;93436.66;10477774;28;1979;-59
2023/11/03 17:47:25;;;;;;;;;;;;;;;21.59;41.88;93440.75;10482580;28;1601;-59
2023/11/03 17:52:28;;;;;;;;;;;;;;;21.55;41.96;93442.50;10484617;28;5349;-59
2023/11/03 17:57:28;;;;;;;;;;;;;;;21.53;41.95;93444.72;10488221;28;1570;-59
2023/11/03 18:02:29;;;;;;;;;;;;;;;21.47;42.11;93462.63;10468368;28;1918;-59
2023/11/03 18:07:29;;;;;;;;;;;;;;;21.47;42.05;93467.13;10484418;28;1472;-60
2023/11/03 18:12:30;;;;;;;;;;;;;;;21.38;42.46;93459.34;10484856;28;1483;-58
2023/11/03 18:17:31;;;;;;;;;;;;;;;21.34;42.20;93468.25;10481455;28;1662;-58
2023/11/03 18:22:31;;;;;;;;;;;;;;;21.30;42.65;93476.06;10481580;28;1914;-59
2023/11/03 18:27:32;;;;;;;;;;;;;;;21.29;42.44;93479.03;10484143;28;1404;-59
2023/11/03 18:32:32;;;;;;;;;;;;;;;21.25;42.65;93478.13;10480763;28;1475;-59
2023/11/03 18:37:32;;;;;;;;;;;;;;;21.23;42.40;93477.69;10482589;28;1775;-59
2023/11/03 18:42:33;;;;;;;;;;;;;;;21.20;42.49;93476.50;10449093;28;1995;-59
2023/11/03 18:47:34;;;;;;;;;;;;;;;21.22;42.29;93491.97;10481479;28;1471;-60
2023/11/03 18:52:34;;;;;;;;;;;;;;;21.20;42.59;93491.56;10464296;28;5145;-60
2023/11/03 18:57:34;;;;;;;;;;;;;;;21.20;42.28;93491.56;10476141;28;1408;-60
2023/11/03 19:02:34;;;;;;;;;;;;;;;21.17;42.35;93497.47;10474517;28;1905;-60
2023/11/03 19:07:37;;;;;;;;;;;;;;;21.19;42.70;93495.28;10483315;28;1914;-60
2023/11/03 19:12:37;;;;;;;;;;;;;;;21.17;42.82;93508.78;10484954;28;1882;-59
2023/11/03 19:17:38;;;;;;;;;;;;;;;21.18;42.38;93520.09;10467729;28;2514;-57
2023/11/03 19:22:38;;;;;;;;;;;;;;;21.18;42.38;93528.00;10475144;28;2566;-59
2023/11/03 19:27:38;;;;;;;;;;;;;;;21.17;42.16;93534.34;10444175;28;2711;-59
2023/11/03 19:32:41;;;;;;;;;;;;;;;21.21;42.39;93535.22;10480255;28;2632;-58
2023/11/03 19:37:41;;;;;;;;;;;;;;;21.18;42.42;93541.16;10477477;28;2664;-59
2023/11/03 19:42:42;;;;;;;;;;;;;;;21.18;42.49;93556.97;10460925;28;2732;-59
2023/11/03 19:47:43;;;;;;;;;;;;;;;21.18;42.12;93562.25;10476734;28;2683;-60
2023/11/03 19:52:44;;;;;;;;;;;;;;;21.19;42.02;93574.31;10486596;28;5121;-59
2023/11/03 19:57:44;;;;;;;;;;;;;;;21.16;41.99;93575.75;10463941;28;2605;-59
2023/11/03 20:02:45;;;;;;;;;;;;;;;21.16;42.17;93583.66;10486105;28;2568;-57
2023/11/03 20:07:45;;;;;;;;;;;;;;;21.15;41.94;93597.91;10482397;28;2610;-59
2023/11/03 20:12:45;;;;;;;;;;;;;;;21.16;42.10;93596.06;10480881;28;2560;-59
2023/11/03 20:17:45;;;;;;;;;;;;;;;21.22;41.99;93600.00;10479543;28;2603;-60
2023/11/03 20:22:46;;;;;;;;;;;;;;;21.24;42.24;93601.22;10475517;28;2620;-60
2023/11/03 20:27:46;;;;;;;;;;;;;;;21.26;42.07;93611.44;10475204;28;2617;-59
2023/11/03 20:32:47;;;;;;;;;;;;;;;21.28;41.99;93611.88;10477536;28;3116;-59
2023/11/03 20:37:47;;;;;;;;;;;;;;;21.25;42.24;93604.59;10486039;28;2549;-59
2023/11/03 20:42:47;;;;;;;;;;;;;;;21.25;41.86;93615.16;10466104;28;2641;-59
2023/11/03 20:47:47;;;;;;;;;;;;;;;21.27;41.43;93607.72;10479247;28;2576;-60
2023/11/03 20:52:48;;;;;;;;;;;;;;;21.27;41.50;93610.34;10479701;28;5295;-60
2023/11/03 20:57:48;;;;;;;;;;;;;;;21.23;41.55;93606.81;10479494;28;2668;-60
2023/11/03 21:02:49;;;;;;;;;;;;;;;21.26;41.11;93616.69;10476477;28;3199;-57
2023/11/03 21:07:49;;;;;;;;;;;;;;;21.31;40.90;93616.50;10479286;28;2505;-59
2023/11/03 21:12:50;;;;;;;;;;;;;;;21.26;41.82;93612.22;10473224;28;2665;-59
2023/11/03 21:17:50;;;;;;;;;;;;;;;21.24;41.44;93616.25;10475502;28;2547;-59
2023/11/03 21:22:52;;;;;;;;;;;;;;;21.21;41.48;93612.41;10479194;28;2540;-59
2023/11/03 21:27:53;;;;;;;;;;;;;;;21.21;41.56;93617.69;10475928;28;2636;-59
2023/11/03 21:32:54;;;;;;;;;;;;;;;21.20;40.56;93624.06;10478802;28;2919;-60
2023/11/03 21:37:54;;;;;;;;;;;;;;;21.17;40.42;93618.66;10473047;28;2623;-60
2023/11/03 21:42:54;;;;;;;;;;;;;;;21.09;41.50;93617.66;10479228;28;2617;-59
2023/11/03 21:47:54;;;;;;;;;;;;;;;21.08;40.92;93615.38;10475212;28;2786;-60
2023/11/03 21:52:55;;;;;;;;;;;;;;;21.03;40.53;93616.34;10454991;28;5108;-60
2023/11/03 21:57:55;;;;;;;;;;;;;;;21.00;40.39;93617.72;10481227;28;2589;-60
2023/11/03 22:02:56;;;;;;;;;;;;;;;20.96;40.84;93618.69;10476704;28;2842;-60
2023/11/03 22:07:57;;;;;;;;;;;;;;;20.90;40.89;93626.06;10480339;28;2670;-59
2023/11/03 22:12:58;;;;;;;;;;;;;;;20.86;41.13;93608.59;10478962;28;2668;-59
2023/11/03 22:17:58;;;;;;;;;;;;;;;20.81;42.52;93612.19;10471583;28;2649;-60
2023/11/03 22:22:59;;;;;;;;;;;;;;;20.77;42.37;93615.81;10480777;28;2588;-60
2023/11/03 22:28:01;;;;;;;;;;;;;;;20.76;41.09;93622.94;10476059;28;2578;-59
2023/11/03 22:33:01;;;;;;;;;;;;;;;20.74;40.90;93625.13;10453397;28;2714;-58
2023/11/03 22:38:02;;;;;;;;;;;;;;;20.71;41.12;93615.25;10476581;28;2657;-59
2023/11/03 22:43:02;;;;;;;;;;;;;;;20.68;41.13;93623.03;10486214;28;2650;-58
2023/11/03 22:48:03;;;;;;;;;;;;;;;20.64;40.97;93620.28;10478145;28;2652;-60
2023/11/03 22:53:03;;;;;;;;;;;;;;;20.61;41.11;93628.06;10482454;28;2579;-60
2023/11/03 22:58:07;;;;;;;;;;;;;;;20.60;41.30;93629.16;10482722;28;2717;-59
2023/11/03 23:03:08;;;;;;;;;;;;;;;20.55;41.62;93632.75;10482846;28;2623;-59
2023/11/03 23:08:09;;;;;;;;;;;;;;;20.55;41.30;93634.59;10478076;28;2666;-59
2023/11/03 23:13:09;;;;;;;;;;;;;;;20.51;40.96;93639.75;10476028;28;2545;-60
2023/11/03 23:18:11;;;;;;;;;;;;;;;20.49;40.98;93641.16;10481354;28;2647;-60
2023/11/03 23:23:12;;;;;;;;;;;;;;;20.47;41.46;93643.34;10475784;28;2600;-60
2023/11/03 23:28:12;;;;;;;;;;;;;;;20.42;41.28;93628.53;10471429;28;2596;-60
2023/11/03 23:33:14;;;;;;;;;;;;;;;20.41;41.17;93626.22;10479445;28;2580;-60
2023/11/03 23:38:14;;;;;;;;;;;;;;;20.39;41.36;93637.06;10475113;28;2649;-60
2023/11/03 23:43:15;;;;;;;;;;;;;;;20.36;41.12;93629.06;10472699;28;2711;-60
2023/11/03 23:48:19;;;;;;;;;;;;;;;20.34;41.21;93633.88;10494014;28;2569;-60
2023/11/03 23:53:19;;;;;;;;;;;;;;;20.32;41.22;93644.69;10468900;28;5100;-59
2023/11/03 23:58:21;;;;;;;;;;;;;;;20.30;41.16;93644.25;10489945;28;2573;-60
